Raymond, MT

12:15 AM MDT on October 02, 2014 (GMT -0600)
MesoWest Comertown Turn-Off MT-5 MP 13.4 MT US MT DOT | Change Station
CLOSE
Current Station
Personal Weather Station
Location: Westby, MT
Elevation: 2100 ft
Nearby Weather Stations

Elev 2100 ft 48.81 °N, 104.25 °W | Updated 34 minutes ago

Clear
Clear
44 °F
Feels Like 38 °F
N
12
Wind Variable Wind from WSW
Gusts 14.0 mph

Today
High -- | Low -- °F
--% Chance of Precip.
Yesterday
High -- | Low -- °F
Precip. -- in
6:59 AM 6:34 PM
First Quarter, 55% visible
Pressure 29.82 in
Visibility 10.0 miles
Clouds Clear
Windchill 38 °F
Dew Point 37 °F
Humidity 76%
Rainfall 0.00 in
Snow Depth Not available.
UV 0 out of 12
Pollen .10 out of 12
Air Quality Not available.
Flu Activity Not available.
METAR KD50 020555Z AUTO 24009KT 10SM CLR 07/05 A2982 RMK AO2

More Conditions Fewer Conditions

Pressure 29.82 in
Visibility 10.0 miles
Clouds Clear
Windchill 38 °F
Dew Point 37 °F
Humidity 76%
Rainfall 0.00 in
Snow Depth Not available.
UV 0 out of 12
Pollen .10 out of 12
Air Quality Not available.
Flu Activity Not available.
METAR KD50 020555Z AUTO 24009KT 10SM CLR 07/05 A2982 RMK AO2

More Conditions Fewer Conditions

10-Day Weather Forecast

Almanac

Astronomy

Oct. 02, 2014 Rise Set
Actual Time 6:59 AM MDT 6:34 PM MDT
Civil Twilight 6:27 AM MDT 7:06 PM MDT
Nautical Twilight 5:51 AM MDT 7:42 PM MDT
Astronomical Twilight 5:13 AM MDT 8:19 PM MDT
Moon 3:08 PM MDT No Moon Set
Length of Visible Light 12h 38m
Length of Day
11h 35m
Tomorrow will be 3m 33s shorter.
First Quarter, 55% of the Moon is Illuminated
Today
First Quarter
Oct 8
Full
Oct 15
Last Quarter
Oct 23
New
Oct 30
First Quarter

Community

WunderPhotos

Upload Photos

1,758,198 photos uploaded!

Nearby

Snow Depth

Station Depth Elevation
Saddle Mountain 0 in 7900 ft
Hoodoo Basin 0 in 6050 ft
Tepee Creek 1 in 8000 ft
Pickfoot Creek 0 in 6650 ft
Kraft Creek 1 in 4750 ft

Earthquake Activity

City Distance Mag. Time & Date
No recent earthquake activity has been reported nearby.
Minimum magnitude displayed is 2.5.

Coastal Water Temperatures

Place Temperature
No Stations Reporting

Nearby Weather Stations